Time;durP1;ratioP1;P1;durP2;ratioP2;P2;SDS_P1;SDS_P2;PMS_P1;PMS_P2;Temp;Humidity;BMP_temperature;BMP_pressure;BME280_temperature;BME280_humidity;BME280_pressure;Samples;Min_cycle;Max_cycle;Signal;HPM_P1;HPM_P2
2023/03/03 00:01:28;;;;;;;21.50;13.68;;;2.10;99.90;;;;;;5053958;28;20436;-61
2023/03/03 00:03:54;;;;;;;184.75;19.85;;;2.10;99.90;;;;;;5051743;28;20490;-62
2023/03/03 00:06:20;;;;;;;24.17;13.55;;;2.10;99.90;;;;;;5051684;28;20059;-63
2023/03/03 00:08:46;;;;;;;21.65;13.55;;;2.10;99.90;;;;;;5069955;28;20443;-63
2023/03/03 00:11:12;;;;;;;23.63;14.13;;;2.20;99.90;;;;;;5053890;28;20547;-63
2023/03/03 00:13:38;;;;;;;54.00;14.70;;;2.20;99.90;;;;;;5049010;28;20093;-61
2023/03/03 00:16:26;;;;;;;27.60;13.77;;;2.20;99.90;;;;;;5072803;28;20771;-62
2023/03/03 00:18:53;;;;;;;29.67;13.77;;;2.20;99.90;;;;;;5071241;28;20089;-63
2023/03/03 00:21:31;;;;;;;61.10;12.82;;;2.20;99.90;;;;;;5056770;28;20567;-62
2023/03/03 00:24:15;;;;;;;110.32;11.73;;;2.10;99.90;;;;;;5075467;28;20049;-62
2023/03/03 00:26:57;;;;;;;16.27;10.55;;;2.10;99.90;;;;;;5052981;28;20049;-62
2023/03/03 00:29:29;;;;;;;22.55;10.38;;;2.00;99.90;;;;;;5057066;28;20052;-62
2023/03/03 00:32:09;;;;;;;16.13;10.35;;;2.00;99.90;;;;;;5062179;28;20044;-62
2023/03/03 00:34:36;;;;;;;208.23;16.67;;;2.00;99.90;;;;;;5050834;28;20055;-62
2023/03/03 00:37:01;;;;;;;48.03;10.98;;;1.90;99.90;;;;;;5055921;28;20051;-60
2023/03/03 00:39:45;;;;;;;17.50;10.18;;;1.90;99.90;;;;;;5052422;28;21612;-61
2023/03/03 00:42:16;;;;;;;16.88;10.52;;;1.90;99.90;;;;;;5041580;28;20052;-62
2023/03/03 00:44:59;;;;;;;15.00;10.45;;;1.80;99.90;;;;;;5059529;28;20370;-61
2023/03/03 00:47:35;;;;;;;22.30;11.07;;;1.90;99.90;;;;;;5039307;28;20040;-61
2023/03/03 00:50:10;;;;;;;16.67;11.02;;;1.80;99.90;;;;;;5056604;28;20036;-61
2023/03/03 00:52:39;;;;;;;89.30;11.75;;;1.80;99.90;;;;;;5055094;28;20043;-62
2023/03/03 00:55:06;;;;;;;57.50;10.75;;;1.70;99.90;;;;;;5058904;28;20104;-61
2023/03/03 00:57:32;;;;;;;25.25;9.55;;;1.70;99.90;;;;;;5044976;28;20040;-63
2023/03/03 00:59:58;;;;;;;12.82;8.88;;;1.60;99.90;;;;;;5060430;28;20486;-61
2023/03/03 01:02:24;;;;;;;14.00;9.57;;;1.60;99.90;;;;;;5056336;28;20051;-62
2023/03/03 01:04:55;;;;;;;14.95;9.38;;;1.50;99.90;;;;;;5053221;28;20055;-62
2023/03/03 01:07:21;;;;;;;74.88;10.82;;;1.50;99.90;;;;;;5072808;28;20088;-63
2023/03/03 01:09:47;;;;;;;23.75;10.07;;;1.40;99.90;;;;;;5055464;28;20426;-62
2023/03/03 01:12:13;;;;;;;15.82;9.70;;;1.40;99.90;;;;;;5073363;28;20052;-62
2023/03/03 01:14:40;;;;;;;59.30;13.73;;;1.30;99.90;;;;;;5072601;28;20166;-61
2023/03/03 01:17:06;;;;;;;13.82;9.68;;;1.30;99.90;;;;;;5034965;28;20092;-61
2023/03/03 01:19:32;;;;;;;13.68;9.43;;;1.30;99.90;;;;;;5072146;28;20048;-62
2023/03/03 01:21:57;;;;;;;13.60;9.73;;;1.20;99.90;;;;;;5052766;28;20047;-61
2023/03/03 01:24:23;;;;;;;22.90;8.82;;;1.20;99.90;;;;;;5071286;28;20487;-61
2023/03/03 01:26:49;;;;;;;12.77;8.10;;;1.10;99.90;;;;;;5048254;28;20387;-61
2023/03/03 01:29:15;;;;;;;12.90;9.07;;;1.10;99.90;;;;;;5069806;28;20056;-61
2023/03/03 01:31:41;;;;;;;15.38;9.25;;;1.00;99.90;;;;;;5058801;28;20046;-61
2023/03/03 01:34:07;;;;;;;13.98;8.15;;;1.00;99.90;;;;;;5067328;28;20036;-62
2023/03/03 01:36:33;;;;;;;11.95;8.45;;;0.90;99.90;;;;;;5072596;28;20124;-63
2023/03/03 01:38:59;;;;;;;10.75;8.13;;;0.90;99.90;;;;;;5052165;28;20437;-62
2023/03/03 01:41:32;;;;;;;11.23;8.30;;;0.80;99.90;;;;;;5032664;28;20331;-62
2023/03/03 01:43:59;;;;;;;11.32;8.43;;;0.80;99.90;;;;;;5050789;28;20075;-60
2023/03/03 01:46:47;;;;;;;20.67;8.13;;;0.70;99.90;;;;;;5061934;28;20047;-61
2023/03/03 01:49:29;;;;;;;14.65;8.35;;;0.70;99.90;;;;;;5061700;28;20044;-62
2023/03/03 01:51:59;;;;;;;12.27;8.55;;;0.70;99.90;;;;;;5049596;28;21077;-62
2023/03/03 01:54:32;;;;;;;11.38;8.45;;;0.60;99.90;;;;;;5051813;28;20396;-63
2023/03/03 01:57:04;;;;;;;10.80;8.35;;;0.60;99.90;;;;;;5057100;28;20482;-62
2023/03/03 01:59:34;;;;;;;10.97;7.93;;;0.50;99.90;;;;;;5028536;28;20127;-63
2023/03/03 02:02:00;;;;;;;10.00;7.65;;;0.50;99.90;;;;;;5030582;28;20396;-61
2023/03/03 02:04:27;;;;;;;11.60;8.07;;;0.40;99.90;;;;;;5047296;28;20056;-62
2023/03/03 02:07:05;;;;;;;17.55;8.95;;;0.40;99.90;;;;;;5041389;28;20047;-62
2023/03/03 02:09:31;;;;;;;11.70;8.55;;;0.40;99.90;;;;;;5043475;28;20052;-62
2023/03/03 02:12:01;;;;;;;23.23;8.73;;;0.40;99.90;;;;;;5050380;28;20060;-60
2023/03/03 02:14:27;;;;;;;12.88;9.35;;;0.30;99.90;;;;;;5041253;28;20052;-60
2023/03/03 02:16:53;;;;;;;17.30;9.25;;;0.30;99.90;;;;;;5064846;28;20491;-62
2023/03/03 02:19:59;;;;;;;17.08;8.32;;;0.20;99.90;;;;;;5048167;28;20050;-60
2023/03/03 02:22:50;;;;;;;12.20;8.43;;;0.20;99.90;;;;;;5043729;28;20097;-61
2023/03/03 02:25:29;;;;;;;13.13;8.55;;;0.10;99.90;;;;;;5047127;28;21129;-60
2023/03/03 02:27:56;;;;;;;11.82;7.57;;;0.10;99.90;;;;;;5064124;28;20040;-61
2023/03/03 02:30:23;;;;;;;21.63;9.07;;;0.00;99.90;;;;;;5048253;28;20490;-62
2023/03/03 02:32:49;;;;;;;12.40;8.13;;;0.00;99.90;;;;;;5046219;28;20146;-62
2023/03/03 02:35:44;;;;;;;13.20;8.80;;;0.00;99.90;;;;;;5067945;28;20058;-61
2023/03/03 02:38:22;;;;;;;15.50;8.95;;;-0.10;99.90;;;;;;5012707;28;20048;-60
2023/03/03 02:41:08;;;;;;;13.70;8.65;;;-0.10;99.90;;;;;;5055581;28;20048;-61
2023/03/03 02:43:44;;;;;;;14.02;8.90;;;-0.20;99.90;;;;;;5043011;28;20039;-62
2023/03/03 02:46:10;;;;;;;11.88;8.57;;;-0.20;99.90;;;;;;5054523;28;20189;-61
2023/03/03 02:48:36;;;;;;;12.45;7.93;;;-0.30;99.90;;;;;;5044728;28;20101;-61
2023/03/03 02:51:02;;;;;;;10.13;7.63;;;-0.30;99.90;;;;;;5049628;28;20805;-61
2023/03/03 02:53:28;;;;;;;9.75;7.63;;;-0.30;99.90;;;;;;5033590;28;20130;-61
2023/03/03 02:55:53;;;;;;;10.02;7.60;;;-0.40;99.90;;;;;;5065746;28;20058;-61
2023/03/03 02:58:19;;;;;;;11.38;8.15;;;-0.50;99.90;;;;;;5069144;28;22036;-60
2023/03/03 03:00:46;;;;;;;10.75;7.40;;;-0.40;99.90;;;;;;5041920;28;20040;-60
2023/03/03 03:03:13;;;;;;;10.38;7.53;;;-0.50;99.90;;;;;;5047989;28;20047;-61
2023/03/03 03:05:39;;;;;;;11.30;7.57;;;-0.50;99.90;;;;;;5042142;28;20051;-62
2023/03/03 03:08:05;;;;;;;10.18;7.63;;;-0.60;99.90;;;;;;5047883;28;20726;-60
2023/03/03 03:10:31;;;;;;;10.70;7.32;;;-0.60;99.90;;;;;;5043318;28;20051;-60
2023/03/03 03:12:57;;;;;;;10.13;7.45;;;-0.70;99.90;;;;;;5062481;28;20043;-61
2023/03/03 03:15:22;;;;;;;7.93;6.78;;;-0.70;99.90;;;;;;5060924;28;20048;-62
2023/03/03 03:17:48;;;;;;;9.63;7.43;;;-0.80;99.90;;;;;;5048088;28;20058;-60
2023/03/03 03:20:14;;;;;;;9.65;7.32;;;-0.80;99.90;;;;;;5064757;28;20047;-60
2023/03/03 03:22:40;;;;;;;8.27;6.72;;;-0.80;99.90;;;;;;5076530;28;20120;-60
2023/03/03 03:25:06;;;;;;;8.75;6.72;;;-0.80;99.90;;;;;;5029240;28;20052;-61
2023/03/03 03:27:32;;;;;;;9.05;6.70;;;-0.90;99.90;;;;;;5024873;28;20059;-62
2023/03/03 03:29:58;;;;;;;8.40;6.70;;;-0.90;99.90;;;;;;5046900;28;20059;-61
2023/03/03 03:32:24;;;;;;;7.88;6.20;;;-0.90;99.90;;;;;;5065388;28;20108;-61
2023/03/03 03:34:50;;;;;;;8.65;6.40;;;-1.00;99.90;;;;;;5046223;28;20071;-61
2023/03/03 03:37:15;;;;;;;8.52;6.55;;;-1.00;99.90;;;;;;5047795;28;20187;-60
2023/03/03 03:39:41;;;;;;;9.10;6.70;;;-1.10;99.90;;;;;;5049761;28;20046;-62
2023/03/03 03:42:07;;;;;;;8.95;6.90;;;-1.10;99.90;;;;;;5028658;28;20150;-60
2023/03/03 03:44:33;;;;;;;9.18;6.65;;;-1.10;99.90;;;;;;5037197;28;20055;-61
2023/03/03 03:46:58;;;;;;;8.95;6.88;;;-1.10;99.90;;;;;;5046981;28;20048;-61
2023/03/03 03:49:24;;;;;;;11.00;6.90;;;-1.10;99.90;;;;;;5046527;28;20048;-62
2023/03/03 03:51:50;;;;;;;8.55;6.45;;;-1.20;99.90;;;;;;5060431;28;20090;-62
2023/03/03 03:54:16;;;;;;;9.30;6.72;;;-1.20;99.90;;;;;;5036256;28;20048;-60
2023/03/03 03:56:42;;;;;;;8.95;6.97;;;-1.20;99.90;;;;;;5050217;28;20051;-62
2023/03/03 03:59:08;;;;;;;14.02;8.50;;;-1.20;99.90;;;;;;5031100;28;20072;-60
2023/03/03 04:01:34;;;;;;;8.90;6.93;;;-1.20;99.90;;;;;;5047615;28;20064;-60
2023/03/03 04:03:59;;;;;;;9.30;6.85;;;-1.30;99.90;;;;;;5071535;28;20100;-60
2023/03/03 04:06:25;;;;;;;9.80;6.72;;;-1.30;99.90;;;;;;5053053;28;20086;-60
2023/03/03 04:08:51;;;;;;;9.25;6.88;;;-1.30;99.90;;;;;;5051715;28;20044;-62
2023/03/03 04:11:17;;;;;;;8.85;6.75;;;-1.30;99.90;;;;;;5052472;28;20179;-62
2023/03/03 04:13:42;;;;;;;12.52;7.60;;;-1.40;99.90;;;;;;5035715;28;20143;-61
2023/03/03 04:16:08;;;;;;;10.57;7.00;;;-1.30;99.90;;;;;;5051299;28;20166;-60
2023/03/03 04:18:34;;;;;;;9.77;7.22;;;-1.30;99.90;;;;;;5069160;28;20044;-61
2023/03/03 04:21:00;;;;;;;9.35;7.15;;;-1.00;99.90;;;;;;5057223;28;20048;-60
2023/03/03 04:23:26;;;;;;;9.98;7.57;;;-1.30;99.90;;;;;;5037505;28;20056;-60
2023/03/03 04:25:51;;;;;;;9.32;7.18;;;-1.40;99.90;;;;;;5069921;28;20098;-61
2023/03/03 04:28:17;;;;;;;9.65;7.22;;;-1.40;99.90;;;;;;5045879;28;20174;-62
2023/03/03 04:30:44;;;;;;;10.32;7.43;;;-1.40;99.90;;;;;;5052682;28;20075;-62
2023/03/03 04:33:10;;;;;;;9.73;7.10;;;-1.40;99.90;;;;;;5047563;28;20048;-60
2023/03/03 04:35:35;;;;;;;10.80;7.35;;;-1.40;99.90;;;;;;5051112;28;20140;-60
2023/03/03 04:38:01;;;;;;;9.63;6.85;;;-1.40;99.90;;;;;;5056228;28;20052;-60
2023/03/03 04:40:27;;;;;;;9.63;6.63;;;-1.40;99.90;;;;;;5033143;28;20082;-62
2023/03/03 04:42:53;;;;;;;15.15;7.82;;;-1.40;99.90;;;;;;5067492;28;20478;-62
2023/03/03 04:45:18;;;;;;;12.23;7.50;;;-1.40;99.90;;;;;;5054271;28;20044;-61
2023/03/03 04:47:44;;;;;;;11.82;7.65;;;-1.40;99.90;;;;;;5050501;28;20060;-60
2023/03/03 04:50:11;;;;;;;9.82;7.35;;;-1.40;99.90;;;;;;5051722;28;20040;-60
2023/03/03 04:52:37;;;;;;;11.85;7.55;;;-1.40;99.90;;;;;;5020324;28;20080;-59
2023/03/03 04:55:03;;;;;;;9.77;7.47;;;-1.40;99.90;;;;;;5050767;28;20056;-61
2023/03/03 04:57:29;;;;;;;10.77;7.68;;;-1.50;99.90;;;;;;5043442;28;20498;-62
2023/03/03 04:59:55;;;;;;;10.32;7.80;;;-1.50;99.90;;;;;;5061618;28;20040;-61
2023/03/03 05:02:21;;;;;;;11.60;8.18;;;-1.50;99.90;;;;;;5053380;28;20411;-61
2023/03/03 05:04:47;;;;;;;11.63;8.35;;;-1.50;99.90;;;;;;5053133;28;20044;-60
2023/03/03 05:07:13;;;;;;;10.75;8.00;;;-1.50;99.90;;;;;;5050719;28;20086;-61
2023/03/03 05:09:39;;;;;;;11.75;8.32;;;-1.50;99.90;;;;;;5044227;28;20456;-61
2023/03/03 05:12:04;;;;;;;11.98;8.20;;;-1.50;99.90;;;;;;5069772;28;20055;-60
2023/03/03 05:14:30;;;;;;;11.13;7.68;;;-1.50;99.90;;;;;;5048411;28;20096;-61
2023/03/03 05:16:56;;;;;;;12.55;8.38;;;-1.50;99.90;;;;;;5052109;28;20062;-61
2023/03/03 05:19:23;;;;;;;12.98;7.95;;;-1.50;99.90;;;;;;5049101;28;20051;-60
2023/03/03 05:21:48;;;;;;;12.20;8.35;;;-1.50;99.90;;;;;;5068793;28;20036;-61
2023/03/03 05:24:14;;;;;;;11.25;8.40;;;-1.50;99.90;;;;;;5040037;28;20117;-62
2023/03/03 05:26:40;;;;;;;11.73;8.40;;;-1.40;99.90;;;;;;5047225;28;20436;-61
2023/03/03 05:29:07;;;;;;;13.55;8.75;;;-1.50;99.90;;;;;;5046915;28;20048;-61
2023/03/03 05:31:32;;;;;;;11.40;8.20;;;-1.50;99.90;;;;;;5071283;28;20126;-62
2023/03/03 05:33:58;;;;;;;12.18;8.63;;;-1.50;99.90;;;;;;5047729;28;20328;-60
2023/03/03 05:36:24;;;;;;;12.77;8.45;;;-1.50;99.90;;;;;;5046234;28;20047;-62
2023/03/03 05:38:51;;;;;;;14.25;8.32;;;-1.50;99.90;;;;;;5022416;28;20060;-61
2023/03/03 05:41:17;;;;;;;13.57;9.32;;;-1.50;99.90;;;;;;5049976;28;20131;-60
2023/03/03 05:43:43;;;;;;;12.75;8.93;;;-1.50;99.90;;;;;;5068788;28;20066;-60
2023/03/03 05:46:09;;;;;;;14.13;9.05;;;-1.50;99.90;;;;;;5052525;28;20144;-61
2023/03/03 05:48:34;;;;;;;13.07;8.90;;;-1.50;99.90;;;;;;5035909;28;20043;-60
2023/03/03 05:51:00;;;;;;;13.98;9.68;;;-1.50;99.90;;;;;;5033430;28;20162;-60
2023/03/03 05:53:27;;;;;;;15.77;9.75;;;-1.50;99.90;;;;;;5047646;28;20051;-61
2023/03/03 05:55:53;;;;;;;15.43;9.68;;;-1.50;99.90;;;;;;5046861;28;20044;-60
2023/03/03 05:58:20;;;;;;;15.30;9.40;;;-1.50;99.90;;;;;;5051561;28;20062;-60
2023/03/03 06:00:46;;;;;;;16.02;10.82;;;-1.60;99.90;;;;;;5067728;28;20055;-60
2023/03/03 06:03:11;;;;;;;20.52;9.52;;;-1.60;99.90;;;;;;5052782;28;20066;-61
2023/03/03 06:05:37;;;;;;;15.88;9.32;;;-1.60;99.90;;;;;;5033242;28;20059;-60
2023/03/03 06:08:03;;;;;;;15.90;9.75;;;-1.60;99.90;;;;;;5045905;28;21044;-62
2023/03/03 06:10:29;;;;;;;14.95;10.02;;;-1.60;99.90;;;;;;5046662;28;20683;-60
2023/03/03 06:12:55;;;;;;;15.23;10.23;;;-1.60;99.90;;;;;;5046404;28;20075;-59
2023/03/03 06:15:23;;;;;;;14.68;9.55;;;-1.60;99.90;;;;;;5047394;28;20051;-60
2023/03/03 06:17:49;;;;;;;16.52;10.13;;;-1.60;99.90;;;;;;5029539;28;20487;-61
2023/03/03 06:20:15;;;;;;;17.27;10.18;;;-1.60;99.90;;;;;;5044727;28;20087;-61
2023/03/03 06:22:41;;;;;;;20.00;9.95;;;-1.60;99.90;;;;;;5044336;28;20055;-61
2023/03/03 06:25:07;;;;;;;14.07;9.88;;;-1.60;99.90;;;;;;5032769;28;20047;-62
2023/03/03 06:27:34;;;;;;;14.55;9.73;;;-1.60;99.90;;;;;;5042012;28;20053;-59
2023/03/03 06:29:59;;;;;;;16.73;10.63;;;-1.60;99.90;;;;;;5042936;28;20044;-62
2023/03/03 06:32:25;;;;;;;18.42;10.40;;;-1.60;99.90;;;;;;5043838;28;20044;-60
2023/03/03 06:34:51;;;;;;;17.13;11.02;;;-1.60;99.90;;;;;;5044462;28;20059;-60
2023/03/03 06:37:17;;;;;;;17.05;10.40;;;-1.60;99.90;;;;;;5045120;28;20075;-60
2023/03/03 06:39:43;;;;;;;17.63;10.70;;;-1.60;99.90;;;;;;5029640;28;20052;-61
2023/03/03 06:42:08;;;;;;;16.48;10.75;;;-1.60;99.90;;;;;;5027648;28;20082;-60
2023/03/03 06:44:35;;;;;;;15.20;10.32;;;-1.60;99.90;;;;;;5055235;28;20064;-59
2023/03/03 06:47:01;;;;;;;16.88;10.80;;;-1.60;99.90;;;;;;5049427;28;21868;-60
2023/03/03 06:49:26;;;;;;;18.25;11.05;;;-1.50;99.90;;;;;;5060127;28;20044;-59
2023/03/03 06:51:52;;;;;;;18.77;11.15;;;-1.50;99.90;;;;;;5063980;28;20041;-61
2023/03/03 06:54:22;;;;;;;18.23;10.95;;;-1.50;99.90;;;;;;5043378;28;20032;-62
2023/03/03 06:56:51;;;;;;;17.92;11.40;;;-1.50;99.90;;;;;;5054147;28;20144;-61
2023/03/03 06:59:19;;;;;;;17.85;11.02;;;-1.40;99.90;;;;;;5055123;28;20479;-61
2023/03/03 07:01:49;;;;;;;18.25;11.32;;;-1.40;99.90;;;;;;5061469;28;20049;-61
2023/03/03 07:04:18;;;;;;;17.45;11.18;;;-1.40;99.90;;;;;;5054499;28;20058;-61
2023/03/03 07:06:44;;;;;;;17.10;11.27;;;-1.40;99.90;;;;;;5038756;28;20063;-60
2023/03/03 07:09:22;;;;;;;19.95;11.52;;;-1.30;99.90;;;;;;5068945;28;20059;-62
2023/03/03 07:11:54;;;;;;;21.67;12.00;;;-1.30;99.90;;;;;;5063234;28;20146;-62
2023/03/03 07:14:20;;;;;;;19.52;11.75;;;-1.20;99.90;;;;;;5044047;28;20077;-60
2023/03/03 07:16:46;;;;;;;22.88;12.20;;;-1.10;99.90;;;;;;5062180;28;20032;-62
2023/03/03 07:19:33;;;;;;;22.05;11.93;;;-1.10;99.90;;;;;;5063026;28;20047;-60
2023/03/03 07:22:13;;;;;;;18.77;11.18;;;-1.00;99.90;;;;;;5051165;28;20033;-62
2023/03/03 07:24:40;;;;;;;22.30;11.98;;;-0.90;99.90;;;;;;5060469;28;20053;-60
2023/03/03 07:27:35;;;;;;;18.52;11.70;;;-0.90;99.90;;;;;;5062865;28;20051;-61
2023/03/03 07:30:26;;;;;;;21.48;12.43;;;-0.80;99.90;;;;;;5051082;28;20047;-62
2023/03/03 07:32:55;;;;;;;20.10;11.85;;;-0.80;99.90;;;;;;5036461;28;20053;-59
2023/03/03 07:35:39;;;;;;;18.80;11.00;;;-0.70;99.90;;;;;;5056760;28;20048;-60
2023/03/03 07:38:28;;;;;;;17.98;10.75;;;-0.70;99.90;;;;;;5065080;28;20040;-62
2023/03/03 07:40:57;;;;;;;23.65;11.88;;;-0.60;99.90;;;;;;5064373;28;20412;-60
2023/03/03 07:43:28;;;;;;;19.30;11.75;;;-0.50;99.90;;;;;;5070236;28;20143;-61
2023/03/03 07:46:09;;;;;;;20.00;11.90;;;-0.50;99.90;;;;;;5070994;28;20807;-59
2023/03/03 07:48:40;;;;;;;19.45;10.65;;;-0.40;99.90;;;;;;5056144;28;20079;-59
2023/03/03 07:51:24;;;;;;;19.95;11.25;;;-0.40;99.90;;;;;;5055742;28;20051;-59
2023/03/03 07:53:51;;;;;;;19.33;11.57;;;-0.30;99.90;;;;;;5068338;28;20043;-61
2023/03/03 07:56:33;;;;;;;22.00;11.70;;;-0.30;99.90;;;;;;5067508;28;20048;-60
2023/03/03 07:59:06;;;;;;;19.70;11.93;;;-0.20;99.90;;;;;;5068286;28;20041;-59
2023/03/03 08:01:45;;;;;;;;;;;-0.20;99.90;;;;;;5064984;28;20048;-59
2023/03/03 08:04:40;;;;;;;19.30;11.23;;;-0.10;99.90;;;;;;5053459;28;19962;-59
2023/03/03 08:07:15;;;;;;;22.20;11.05;;;0.00;99.90;;;;;;5069733;28;20048;-61
2023/03/03 08:10:09;;;;;;;20.63;11.18;;;0.00;99.90;;;;;;5056461;28;20079;-61
2023/03/03 08:12:40;;;;;;;23.38;12.07;;;0.00;99.90;;;;;;5068340;28;20105;-61
2023/03/03 08:15:29;;;;;;;17.23;11.15;;;0.10;99.90;;;;;;5065298;28;20062;-61
2023/03/03 08:18:00;;;;;;;22.08;11.05;;;0.20;99.90;;;;;;5059668;28;20066;-61
2023/03/03 08:20:34;;;;;;;18.05;11.07;;;0.30;99.90;;;;;;5063897;28;20047;-61
2023/03/03 08:23:00;;;;;;;16.67;11.13;;;0.30;99.90;;;;;;5079792;28;20047;-60
2023/03/03 08:25:26;;;;;;;17.23;11.45;;;0.40;99.90;;;;;;5053575;28;20572;-61
2023/03/03 08:27:52;;;;;;;20.58;11.07;;;0.40;99.90;;;;;;5092840;28;20039;-62
2023/03/03 08:30:17;;;;;;;21.27;11.57;;;0.50;99.90;;;;;;5090577;28;20040;-60
2023/03/03 08:32:43;;;;;;;20.75;11.18;;;0.50;99.90;;;;;;5070984;28;20120;-61
2023/03/03 08:35:09;;;;;;;16.88;10.95;;;0.70;99.90;;;;;;5071943;28;20508;-60
2023/03/03 08:37:35;;;;;;;20.15;11.45;;;0.70;99.90;;;;;;5052783;28;20390;-61
2023/03/03 08:40:01;;;;;;;17.85;10.05;;;0.80;99.90;;;;;;5052383;28;20044;-59
2023/03/03 08:42:28;;;;;;;21.50;11.10;;;0.80;99.90;;;;;;5031611;28;20064;-62
2023/03/03 08:44:54;;;;;;;20.45;10.90;;;0.90;99.90;;;;;;5043972;28;20406;-60
2023/03/03 08:47:20;;;;;;;19.92;11.63;;;1.00;99.90;;;;;;5063999;28;20055;-60
2023/03/03 08:49:46;;;;;;;22.58;12.07;;;1.10;99.90;;;;;;5056108;28;20062;-61
2023/03/03 08:52:12;;;;;;;24.40;12.68;;;1.20;99.90;;;;;;5091052;28;20040;-62
2023/03/03 08:54:38;;;;;;;22.75;12.13;;;1.30;99.90;;;;;;5056452;28;20048;-60
2023/03/03 08:57:04;;;;;;;21.38;12.38;;;1.40;99.90;;;;;;5070937;28;20071;-61
2023/03/03 08:59:29;;;;;;;18.48;11.27;;;1.50;99.90;;;;;;5068736;28;20075;-62
2023/03/03 09:01:55;;;;;;;18.60;12.15;;;1.50;99.90;;;;;;5049083;28;20041;-61
2023/03/03 09:04:21;;;;;;;24.17;11.25;;;1.70;99.90;;;;;;5046907;28;20557;-61
2023/03/03 09:06:47;;;;;;;22.42;11.15;;;1.80;99.90;;;;;;5055022;28;20055;-62
2023/03/03 09:09:13;;;;;;;24.45;11.60;;;1.90;99.90;;;;;;5051257;28;20245;-60
2023/03/03 09:11:38;;;;;;;20.65;10.50;;;2.00;99.90;;;;;;5070807;28;20628;-62
2023/03/03 09:14:12;;;;;;;17.55;10.65;;;2.10;99.90;;;;;;5073948;28;20178;-60
2023/03/03 09:16:40;;;;;;;19.02;11.63;;;2.20;99.90;;;;;;5053949;28;20048;-60
2023/03/03 09:19:15;;;;;;;21.13;11.50;;;2.40;99.90;;;;;;5072307;28;20044;-61
2023/03/03 09:21:41;;;;;;;20.02;11.52;;;2.50;99.90;;;;;;5054933;28;20136;-62
2023/03/03 09:24:27;;;;;;;16.17;9.77;;;2.50;99.90;;;;;;5070576;28;20040;-61
2023/03/03 09:26:53;;;;;;;18.63;10.73;;;2.70;99.90;;;;;;5071077;28;20059;-60
2023/03/03 09:29:30;;;;;;;20.63;10.90;;;2.80;99.90;;;;;;5051992;28;20056;-60
2023/03/03 09:32:06;;;;;;;24.25;10.85;;;2.90;99.90;;;;;;5069075;28;20740;-61
2023/03/03 09:34:41;;;;;;;18.88;10.18;;;3.00;99.90;;;;;;5050581;28;20044;-60
2023/03/03 09:37:28;;;;;;;19.52;11.38;;;3.10;99.90;;;;;;5074436;28;20052;-62
2023/03/03 09:39:56;;;;;;;20.45;9.85;;;3.20;99.90;;;;;;5045331;28;20137;-61
2023/03/03 09:42:33;;;;;;;18.25;10.60;;;3.30;99.90;;;;;;5041086;28;20649;-61
2023/03/03 09:45:11;;;;;;;16.25;9.82;;;3.50;99.90;;;;;;5053458;28;20047;-62
2023/03/03 09:47:44;;;;;;;24.00;11.13;;;3.50;99.90;;;;;;5049481;28;20128;-63
2023/03/03 09:50:27;;;;;;;16.20;10.20;;;3.60;99.90;;;;;;5039983;28;20070;-61
2023/03/03 09:53:18;;;;;;;19.33;9.80;;;3.70;99.90;;;;;;5073148;28;20044;-63
2023/03/03 09:55:54;;;;;;;15.68;9.30;;;3.80;99.90;;;;;;5060058;28;20144;-62
2023/03/03 09:58:20;;;;;;;13.68;8.00;;;3.90;99.90;;;;;;5066069;28;20040;-61
2023/03/03 10:01:13;;;;;;;20.30;8.20;;;4.00;99.90;;;;;;5047854;28;20040;-62
2023/03/03 10:03:48;;;;;;;14.88;7.10;;;4.10;99.90;;;;;;5073302;28;20054;-60
2023/03/03 10:06:13;;;;;;;13.60;7.60;;;4.20;99.90;;;;;;5059183;28;20066;-62
2023/03/03 10:08:51;;;;;;;16.73;8.10;;;4.20;99.90;;;;;;5027914;28;20051;-60
2023/03/03 10:11:22;;;;;;;15.88;8.35;;;4.40;99.90;;;;;;5046023;28;20400;-62
2023/03/03 10:14:00;;;;;;;12.35;6.63;;;4.40;99.90;;;;;;5049238;28;20047;-60
2023/03/03 10:16:47;;;;;;;9.50;6.43;;;4.50;99.90;;;;;;5043568;28;20455;-62
2023/03/03 10:19:45;;;;;;;13.15;5.60;;;4.70;99.90;;;;;;5066327;28;20090;-62
2023/03/03 10:22:23;;;;;;;8.15;4.88;;;4.80;99.90;;;;;;5025255;28;20073;-61
2023/03/03 10:24:55;;;;;;;6.68;4.60;;;5.00;99.90;;;;;;5020065;28;20120;-61
2023/03/03 10:27:38;;;;;;;9.68;4.95;;;5.10;99.90;;;;;;5068946;28;20051;-62
2023/03/03 10:30:16;;;;;;;6.30;2.80;;;5.20;99.90;;;;;;5048455;28;20109;-60
2023/03/03 10:33:09;;;;;;;4.07;2.60;;;5.40;99.90;;;;;;5056952;28;23187;-60
2023/03/03 10:36:00;;;;;;;5.55;2.67;;;5.50;99.90;;;;;;5070118;28;20052;-60
2023/03/03 10:39:00;;;;;;;2.75;1.70;;;5.70;99.90;;;;;;5047713;28;20054;-63
2023/03/03 10:41:46;;;;;;;1.98;1.50;;;5.80;99.90;;;;;;5050164;28;20065;-61
2023/03/03 10:44:30;;;;;;;3.85;1.73;;;5.80;99.90;;;;;;5068337;28;20131;-62
2023/03/03 10:47:14;;;;;;;4.35;1.17;;;5.90;99.90;;;;;;5049103;28;20047;-62
2023/03/03 10:50:02;;;;;;;1.75;0.93;;;6.00;99.90;;;;;;5058724;28;20053;-60
2023/03/03 10:52:46;;;;;;;5.72;1.25;;;6.00;99.90;;;;;;5044839;28;20148;-61
2023/03/03 10:55:15;;;;;;;3.25;1.30;;;6.00;99.90;;;;;;5066706;28;20044;-62
2023/03/03 10:57:43;;;;;;;3.85;1.33;;;6.00;99.90;;;;;;5043585;28;20077;-61
2023/03/03 11:00:18;;;;;;;2.92;1.15;;;6.10;99.90;;;;;;5060589;28;20044;-61
2023/03/03 11:03:13;;;;;;;2.92;1.02;;;6.40;99.90;;;;;;5048441;28;20055;-61
2023/03/03 11:05:44;;;;;;;4.05;1.20;;;6.50;99.90;;;;;;5044847;28;20055;-62
2023/03/03 11:08:19;;;;;;;4.78;1.10;;;6.60;99.90;;;;;;5069080;28;20051;-61
2023/03/03 11:11:10;;;;;;;4.55;1.77;;;6.60;99.90;;;;;;5066627;28;20087;-62
2023/03/03 11:13:48;;;;;;;4.57;1.23;;;6.60;99.90;;;;;;5066594;28;20617;-62
2023/03/03 11:16:33;;;;;;;10.65;2.33;;;6.70;99.90;;;;;;5070616;28;20129;-61
2023/03/03 11:19:37;;;;;;;8.73;1.70;;;6.70;99.90;;;;;;5046705;28;20623;-60
2023/03/03 11:22:28;;;;;;;6.78;1.20;;;6.70;99.90;;;;;;5056535;28;20064;-60
2023/03/03 11:25:41;;;;;;;2.65;1.20;;;6.70;99.90;;;;;;5070400;28;20545;-61
2023/03/03 11:28:39;;;;;;;6.65;1.30;;;6.70;99.90;;;;;;4958338;28;20491;-60
2023/03/03 11:31:28;;;;;;;5.70;1.02;;;6.70;99.90;;;;;;4945744;28;20058;-61
2023/03/03 11:34:15;;;;;;;7.32;1.40;;;6.70;99.90;;;;;;5048046;28;20121;-62
2023/03/03 11:37:15;;;;;;;6.60;1.45;;;6.60;99.90;;;;;;5029757;28;20055;-62
2023/03/03 11:39:43;;;;;;;7.53;1.40;;;6.90;99.90;;;;;;5073123;28;20044;-62
2023/03/03 11:42:22;;;;;;;8.82;1.08;;;7.30;99.90;;;;;;5066430;28;20051;-62
2023/03/03 11:45:00;;;;;;;5.80;1.15;;;7.60;99.90;;;;;;5036837;28;20051;-61
2023/03/03 11:47:51;;;;;;;5.90;1.45;;;7.70;99.90;;;;;;5044930;28;20379;-60
2023/03/03 11:50:28;;;;;;;5.55;1.60;;;7.70;99.90;;;;;;5072090;28;20043;-60
2023/03/03 11:53:19;;;;;;;2.67;1.08;;;7.70;99.90;;;;;;5050478;28;20055;-60
2023/03/03 11:55:49;;;;;;;5.22;1.10;;;7.70;99.90;;;;;;5049011;28;20127;-63
2023/03/03 11:58:56;;;;;;;5.57;1.55;;;7.70;99.90;;;;;;5053224;28;20479;-61
2023/03/03 12:01:49;;;;;;;8.57;1.40;;;7.70;99.90;;;;;;5048613;28;20076;-61
2023/03/03 12:04:19;;;;;;;;;;;7.70;99.90;;;;;;5028280;28;20074;-61
2023/03/03 12:07:01;;;;;;;5.30;1.35;;;7.80;99.90;;;;;;5048353;28;20425;-62
2023/03/03 12:09:44;;;;;;;8.70;1.80;;;7.80;99.90;;;;;;5051525;28;20043;-62
2023/03/03 12:12:34;;;;;;;9.02;1.95;;;7.80;99.90;;;;;;5047681;28;20063;-61
2023/03/03 12:15:12;;;;;;;8.85;1.70;;;7.90;99.90;;;;;;5055264;28;20040;-62
2023/03/03 12:18:06;;;;;;;5.68;1.70;;;7.90;99.90;;;;;;5056365;28;20059;-62
2023/03/03 12:20:35;;;;;;;7.80;1.33;;;7.90;99.90;;;;;;5046229;28;20088;-63
2023/03/03 12:23:16;;;;;;;9.50;1.70;;;7.90;99.90;;;;;;5052745;28;20054;-63
2023/03/03 12:25:50;;;;;;;7.68;1.63;;;7.90;99.90;;;;;;5073442;28;20040;-62
2023/03/03 12:28:24;;;;;;;8.15;2.20;;;7.90;99.90;;;;;;5053488;28;20048;-61
2023/03/03 12:31:03;;;;;;;8.57;1.40;;;8.00;99.90;;;;;;5070684;28;20490;-63
2023/03/03 12:33:46;;;;;;;16.08;2.55;;;8.00;99.90;;;;;;5050945;28;20789;-60
2023/03/03 12:36:27;;;;;;;9.15;1.90;;;8.00;99.90;;;;;;5076091;28;20055;-62
2023/03/03 12:38:58;;;;;;;13.93;1.90;;;7.90;99.90;;;;;;5053025;28;20531;-61
2023/03/03 12:41:38;;;;;;;8.30;1.77;;;7.80;99.90;;;;;;5073932;28;20187;-60
2023/03/03 12:44:14;;;;;;;15.48;2.40;;;7.80;99.90;;;;;;5073908;28;20032;-61
2023/03/03 12:47:18;;;;;;;9.82;1.95;;;7.90;99.90;;;;;;5047721;28;20044;-63
2023/03/03 12:49:43;;;;;;;;;;;8.00;99.90;;;;;;5054117;28;20059;-62
2023/03/03 12:52:31;;;;;;;12.18;1.85;;;7.90;99.90;;;;;;5054725;28;19920;-61
2023/03/03 12:55:01;;;;;;;12.90;2.85;;;8.10;99.90;;;;;;5042066;28;20044;-62
2023/03/03 12:57:41;;;;;;;11.73;2.13;;;8.30;99.90;;;;;;5056314;28;20923;-62
2023/03/03 13:00:16;;;;;;;13.15;2.80;;;8.40;99.90;;;;;;5046863;28;20043;-61
2023/03/03 13:02:57;;;;;;;18.05;2.42;;;8.40;99.90;;;;;;5067973;28;20687;-63
2023/03/03 13:05:23;;;;;;;10.07;2.22;;;8.40;99.90;;;;;;5053830;28;20091;-62
2023/03/03 13:08:05;;;;;;;16.35;2.72;;;8.40;99.90;;;;;;5031450;28;20048;-61
2023/03/03 13:11:00;;;;;;;10.63;2.30;;;8.30;99.90;;;;;;5069185;28;20099;-62